Time;durP1;ratioP1;P1;durP2;ratioP2;P2;SDS_P1;SDS_P2;PMS_P1;PMS_P2;Temp;Humidity;BMP_temperature;BMP_pressure;BME280_temperature;BME280_humidity;BME280_pressure;Samples;Min_cycle;Max_cycle;Signal;HPM_P1;HPM_P2
2022/08/03 00:03:03;;;;;;;7.40;2.60;;;;;;;;;;6261606;22;20194;-90
2022/08/03 00:06:12;;;;;;;3.25;2.40;;;;;;;;;;6243118;22;20182;-90
2022/08/03 00:09:18;;;;;;;4.43;2.53;;;;;;;;;;6243007;23;20145;-91
2022/08/03 00:12:28;;;;;;;6.13;2.60;;;;;;;;;;6242237;22;20210;-91
2022/08/03 00:15:34;;;;;;;4.10;2.50;;;;;;;;;;6242263;23;20166;-90
2022/08/03 00:18:39;;;;;;;6.05;2.53;;;;;;;;;;6241625;23;20486;-90
2022/08/03 00:21:44;;;;;;;6.13;2.40;;;;;;;;;;6241776;23;20158;-90
2022/08/03 00:24:51;;;;;;;3.65;2.58;;;;;;;;;;6242191;23;20590;-89
2022/08/03 00:27:59;;;;;;;6.15;2.90;;;;;;;;;;6241000;23;20170;-90
2022/08/03 00:31:04;;;;;;;5.10;2.85;;;;;;;;;;6241868;23;20197;-90
2022/08/03 00:34:10;;;;;;;4.10;2.72;;;;;;;;;;6239625;23;20235;-91
2022/08/03 00:37:17;;;;;;;4.70;2.60;;;;;;;;;;6240006;22;20154;-90
2022/08/03 00:40:23;;;;;;;4.07;2.72;;;;;;;;;;6241061;22;20170;-89
2022/08/03 00:43:31;;;;;;;4.10;2.65;;;;;;;;;;6241112;23;20708;-90
2022/08/03 00:46:38;;;;;;;4.43;2.80;;;;;;;;;;6241183;22;20171;-90
2022/08/03 00:49:43;;;;;;;6.13;2.88;;;;;;;;;;6241406;23;20210;-90
2022/08/03 00:52:50;;;;;;;5.40;2.70;;;;;;;;;;6241447;22;20174;-89
2022/08/03 00:55:58;;;;;;;6.70;2.80;;;;;;;;;;6239512;22;20182;-90
2022/08/03 00:59:05;;;;;;;3.50;2.95;;;;;;;;;;6241033;23;20174;-89
2022/08/03 01:02:10;;;;;;;11.65;3.15;;;;;;;;;;6241885;23;20167;-89
2022/08/03 01:05:15;;;;;;;4.32;2.70;;;;;;;;;;6239755;23;20166;-89
2022/08/03 01:08:23;;;;;;;9.05;2.97;;;;;;;;;;6238890;23;20171;-89
2022/08/03 01:11:33;;;;;;;5.90;3.10;;;;;;;;;;6239246;23;20170;-91
2022/08/03 01:14:41;;;;;;;3.83;2.97;;;;;;;;;;6240653;23;20174;-90
2022/08/03 01:17:50;;;;;;;3.70;2.60;;;;;;;;;;6239548;23;20186;-90
2022/08/03 01:20:57;;;;;;;4.75;3.10;;;;;;;;;;6240022;23;20162;-91
2022/08/03 01:24:16;;;;;;;7.93;2.65;;;;;;;;;;6242770;23;20191;-90
2022/08/03 01:27:22;;;;;;;3.70;2.80;;;;;;;;;;6243893;22;20161;-91
2022/08/03 01:30:30;;;;;;;4.68;2.63;;;;;;;;;;6245297;23;20165;-91
2022/08/03 01:33:37;;;;;;;6.35;3.17;;;;;;;;;;6244551;23;20286;-91
2022/08/03 01:36:44;;;;;;;5.68;3.33;;;;;;;;;;6243980;23;20189;-90
2022/08/03 01:39:52;;;;;;;4.82;2.85;;;;;;;;;;6244125;23;20166;-90
2022/08/03 01:42:59;;;;;;;10.02;2.83;;;;;;;;;;6242919;23;20198;-89
2022/08/03 01:46:07;;;;;;;5.57;2.90;;;;;;;;;;6242753;22;20166;-89
2022/08/03 01:49:14;;;;;;;5.32;3.10;;;;;;;;;;6243723;23;20219;-89
2022/08/03 01:52:20;;;;;;;5.97;3.00;;;;;;;;;;6242056;23;20178;-89
2022/08/03 01:55:27;;;;;;;8.85;3.03;;;;;;;;;;6241735;23;20264;-91
2022/08/03 01:58:33;;;;;;;7.85;3.20;;;;;;;;;;6243394;22;20163;-91
2022/08/03 02:01:41;;;;;;;6.47;3.33;;;;;;;;;;6243867;22;20167;-90
2022/08/03 02:04:47;;;;;;;7.53;2.97;;;;;;;;;;6243232;23;20242;-88
2022/08/03 02:07:53;;;;;;;5.90;2.90;;;;;;;;;;6242583;23;20599;-89
2022/08/03 02:11:01;;;;;;;6.78;3.00;;;;;;;;;;6242918;23;20170;-90
2022/08/03 02:14:07;;;;;;;5.95;2.88;;;;;;;;;;6242769;23;20154;-90
2022/08/03 02:17:15;;;;;;;4.30;2.90;;;;;;;;;;6244526;22;20199;-90
2022/08/03 02:20:20;;;;;;;9.00;3.28;;;;;;;;;;6242912;22;20630;-89
2022/08/03 02:23:25;;;;;;;5.55;2.75;;;;;;;;;;6242411;23;20650;-91
2022/08/03 02:26:31;;;;;;;5.95;3.30;;;;;;;;;;6243551;23;20210;-89
2022/08/03 02:29:37;;;;;;;8.75;3.25;;;;;;;;;;6241962;22;20171;-90
2022/08/03 02:32:49;;;;;;;3.58;2.70;;;;;;;;;;6242061;22;20294;-90
2022/08/03 02:35:55;;;;;;;6.72;3.95;;;;;;;;;;6241409;23;20158;-90
2022/08/03 02:39:02;;;;;;;6.82;3.10;;;;;;;;;;6241189;23;20163;-89
2022/08/03 02:42:09;;;;;;;8.30;3.40;;;;;;;;;;6242751;23;20166;-89
2022/08/03 02:45:16;;;;;;;6.35;3.42;;;;;;;;;;6243901;23;20166;-90
2022/08/03 02:48:26;;;;;;;4.80;3.10;;;;;;;;;;6243036;22;20166;-91
2022/08/03 02:51:33;;;;;;;6.25;3.20;;;;;;;;;;6241508;23;20218;-90
2022/08/03 02:54:38;;;;;;;7.65;3.33;;;;;;;;;;6243171;23;20179;-88
2022/08/03 02:57:45;;;;;;;8.75;3.03;;;;;;;;;;6241988;23;20166;-89
2022/08/03 03:00:51;;;;;;;7.65;3.75;;;;;;;;;;6240302;23;20162;-89
2022/08/03 03:03:58;;;;;;;4.88;3.20;;;;;;;;;;6241766;22;20177;-90
2022/08/03 03:07:03;;;;;;;6.55;2.88;;;;;;;;;;6242466;22;20185;-89
2022/08/03 03:10:09;;;;;;;6.32;3.15;;;;;;;;;;6240901;23;20167;-89
2022/08/03 03:13:15;;;;;;;5.82;2.92;;;;;;;;;;6239043;23;20297;-89
2022/08/03 03:16:21;;;;;;;8.00;3.20;;;;;;;;;;6240392;23;20179;-89
2022/08/03 03:19:29;;;;;;;9.23;3.65;;;;;;;;;;6241490;22;20155;-90
2022/08/03 03:22:35;;;;;;;7.30;3.20;;;;;;;;;;6245882;22;20186;-89
2022/08/03 03:25:40;;;;;;;6.55;3.40;;;;;;;;;;6243960;23;20219;-87
2022/08/03 03:28:46;;;;;;;12.85;3.78;;;;;;;;;;6244712;23;20162;-89
2022/08/03 03:31:52;;;;;;;5.20;3.00;;;;;;;;;;6243535;23;20166;-88
2022/08/03 03:34:59;;;;;;;7.88;3.65;;;;;;;;;;6242981;23;20257;-90
2022/08/03 03:38:07;;;;;;;6.72;4.07;;;;;;;;;;6244604;22;20211;-89
2022/08/03 03:41:13;;;;;;;7.10;3.55;;;;;;;;;;6243613;23;20206;-89
2022/08/03 03:44:18;;;;;;;11.80;3.67;;;;;;;;;;6244095;23;20261;-90
2022/08/03 03:47:24;;;;;;;6.85;3.50;;;;;;;;;;6242766;23;20206;-91
2022/08/03 03:50:30;;;;;;;6.15;3.60;;;;;;;;;;6242350;23;20249;-90
2022/08/03 03:53:36;;;;;;;7.35;3.53;;;;;;;;;;6242821;22;20231;-89
2022/08/03 03:56:41;;;;;;;9.13;3.78;;;;;;;;;;6241459;22;20491;-90
2022/08/03 03:59:46;;;;;;;6.70;3.40;;;;;;;;;;6245876;22;20174;-89
2022/08/03 04:02:56;;;;;;;11.75;4.20;;;;;;;;;;6223046;23;20327;-89
2022/08/03 04:12:51;;;;;;;6.50;3.40;;;;;;;;;;6240907;23;20499;-89
2022/08/03 04:15:58;;;;;;;7.97;3.58;;;;;;;;;;6243053;23;20162;-90
2022/08/03 04:19:09;;;;;;;6.15;3.45;;;;;;;;;;6240616;23;20185;-90
2022/08/03 04:22:18;;;;;;;7.22;3.40;;;;;;;;;;6241822;23;20167;-90
2022/08/03 04:25:27;;;;;;;4.20;3.17;;;;;;;;;;6242485;22;20182;-89
2022/08/03 04:28:33;;;;;;;5.43;3.38;;;;;;;;;;6241729;23;20239;-90
2022/08/03 04:31:39;;;;;;;6.82;3.22;;;;;;;;;;6240927;23;20170;-89
2022/08/03 04:34:44;;;;;;;5.15;3.35;;;;;;;;;;6240395;23;20174;-88
2022/08/03 04:37:53;;;;;;;7.85;3.40;;;;;;;;;;6238346;22;20166;-89
2022/08/03 04:40:58;;;;;;;7.93;3.65;;;;;;;;;;6240238;22;20229;-89
2022/08/03 04:44:05;;;;;;;8.43;3.58;;;;;;;;;;6238810;23;20197;-89
2022/08/03 04:47:10;;;;;;;4.40;2.83;;;;;;;;;;6242789;23;20166;-90
2022/08/03 04:50:16;;;;;;;9.30;4.15;;;;;;;;;;6240985;23;20161;-91
2022/08/03 04:53:22;;;;;;;4.65;3.28;;;;;;;;;;6239165;22;20210;-89
2022/08/03 04:56:27;;;;;;;5.63;3.83;;;;;;;;;;6241208;22;20151;-89
2022/08/03 04:59:34;;;;;;;5.75;3.70;;;;;;;;;;6241367;22;20290;-90
2022/08/03 05:02:39;;;;;;;6.13;3.13;;;;;;;;;;6242537;23;20543;-90
2022/08/03 05:05:44;;;;;;;6.43;3.63;;;;;;;;;;6240995;23;20712;-90
2022/08/03 05:08:51;;;;;;;4.93;3.13;;;;;;;;;;6241283;23;20171;-89
2022/08/03 05:11:56;;;;;;;6.90;3.83;;;;;;;;;;6260324;23;20159;-88
2022/08/03 05:15:02;;;;;;;11.35;3.45;;;;;;;;;;6245502;22;20162;-88
2022/08/03 05:18:07;;;;;;;5.68;3.70;;;;;;;;;;6244207;22;20270;-91
2022/08/03 05:21:13;;;;;;;8.60;3.50;;;;;;;;;;6243586;23;20178;-90
2022/08/03 05:24:19;;;;;;;5.30;3.60;;;;;;;;;;6242071;23;20205;-92
2022/08/03 05:27:25;;;;;;;4.47;3.33;;;;;;;;;;6241789;23;20198;-89
2022/08/03 05:30:30;;;;;;;9.00;4.38;;;;;;;;;;6242685;22;20198;-89
2022/08/03 05:33:35;;;;;;;8.68;3.95;;;;;;;;;;6242820;22;20612;-89
2022/08/03 05:36:41;;;;;;;7.80;3.80;;;;;;;;;;6242220;22;20226;-90
2022/08/03 05:39:47;;;;;;;7.72;3.60;;;;;;;;;;6243308;22;20167;-91
2022/08/03 05:42:53;;;;;;;8.98;3.10;;;;;;;;;;6241032;23;20213;-89
2022/08/03 05:45:59;;;;;;;7.10;3.70;;;;;;;;;;6240966;22;20217;-89
2022/08/03 05:49:04;;;;;;;8.70;3.85;;;;;;;;;;6243685;23;20170;-89
2022/08/03 05:52:10;;;;;;;8.18;3.45;;;;;;;;;;6241588;22;20614;-88
2022/08/03 05:55:17;;;;;;;11.20;3.60;;;;;;;;;;6240353;23;20204;-89
2022/08/03 05:58:23;;;;;;;8.82;3.17;;;;;;;;;;6241000;22;20171;-89
2022/08/03 06:01:30;;;;;;;5.25;3.40;;;;;;;;;;6240585;22;20151;-89
2022/08/03 06:04:35;;;;;;;8.80;3.25;;;;;;;;;;6241952;22;20243;-89
2022/08/03 06:07:40;;;;;;;7.63;3.55;;;;;;;;;;6240461;22;20264;-89
2022/08/03 06:10:47;;;;;;;7.20;3.33;;;;;;;;;;6241000;23;20162;-88
2022/08/03 06:13:52;;;;;;;9.52;3.42;;;;;;;;;;6244189;22;20505;-89
2022/08/03 06:16:57;;;;;;;7.32;3.10;;;;;;;;;;6244276;23;20602;-91
2022/08/03 06:20:02;;;;;;;6.18;3.00;;;;;;;;;;6242941;22;20166;-89
2022/08/03 06:23:07;;;;;;;4.50;3.00;;;;;;;;;;6243477;22;20179;-89
2022/08/03 06:26:14;;;;;;;6.95;2.97;;;;;;;;;;6243753;22;20167;-90
2022/08/03 06:29:19;;;;;;;7.72;2.80;;;;;;;;;;6242547;23;20162;-91
2022/08/03 06:32:25;;;;;;;7.30;3.08;;;;;;;;;;6243927;23;20219;-90
2022/08/03 06:35:30;;;;;;;15.73;4.38;;;;;;;;;;6243652;23;20190;-90
2022/08/03 06:42:03;;;;;;;7.55;3.65;;;;;;;;;;6263655;22;20151;-91
2022/08/03 06:45:29;;;;;;;11.55;2.70;;;;;;;;;;6245367;23;20489;-89
2022/08/03 06:48:35;;;;;;;3.78;2.78;;;;;;;;;;6243044;22;20167;-89
2022/08/03 06:51:40;;;;;;;5.18;2.60;;;;;;;;;;6244129;22;20220;-90
2022/08/03 06:54:46;;;;;;;8.20;2.72;;;;;;;;;;6244563;22;20187;-91
2022/08/03 06:57:53;;;;;;;5.45;2.88;;;;;;;;;;6244832;23;20590;-91
2022/08/03 07:00:58;;;;;;;7.60;2.88;;;;;;;;;;6243916;23;20229;-92
2022/08/03 07:04:04;;;;;;;7.00;2.78;;;;;;;;;;6243447;22;20222;-88
2022/08/03 07:07:11;;;;;;;7.43;2.38;;;;;;;;;;6250082;22;20197;-90
2022/08/03 07:10:16;;;;;;;3.90;2.80;;;;;;;;;;6245863;22;20217;-90
2022/08/03 07:13:22;;;;;;;6.93;2.78;;;;;;;;;;6243340;23;20170;-89
2022/08/03 07:19:48;;;;;;;5.45;3.15;;;;;;;;;;6245219;22;20170;-89
2022/08/03 07:22:53;;;;;;;7.82;2.67;;;;;;;;;;6242554;22;20165;-90
2022/08/03 07:25:58;;;;;;;6.65;2.55;;;;;;;;;;6242451;22;20245;-90
2022/08/03 07:29:05;;;;;;;7.57;2.50;;;;;;;;;;6242910;23;20197;-90
2022/08/03 07:32:11;;;;;;;3.30;2.08;;;;;;;;;;6244734;23;20169;-90
2022/08/03 07:35:21;;;;;;;6.38;2.40;;;;;;;;;;6242912;23;20165;-90
2022/08/03 07:41:49;;;;;;;4.38;2.40;;;;;;;;;;6261778;23;20218;-91
2022/08/03 07:48:30;;;;;;;10.10;2.70;;;;;;;;;;6244156;23;20233;-91
2022/08/03 07:51:35;;;;;;;4.95;2.17;;;;;;;;;;6241663;23;20285;-90
2022/08/03 07:54:41;;;;;;;3.28;2.00;;;;;;;;;;6243982;22;20158;-91
2022/08/03 07:57:46;;;;;;;4.13;2.00;;;;;;;;;;6243891;22;20170;-92
2022/08/03 08:00:52;;;;;;;3.22;2.35;;;;;;;;;;6244370;23;20173;-91
2022/08/03 08:03:59;;;;;;;13.63;2.55;;;;;;;;;;6243090;23;20209;-89
2022/08/03 08:07:04;;;;;;;5.82;2.10;;;;;;;;;;6242296;23;20269;-92
2022/08/03 08:10:10;;;;;;;3.38;2.10;;;;;;;;;;6242590;23;20246;-91
2022/08/03 08:13:17;;;;;;;4.78;2.03;;;;;;;;;;6245218;22;20166;-92
2022/08/03 08:16:22;;;;;;;5.53;2.30;;;;;;;;;;6247125;23;20224;-92
2022/08/03 08:19:30;;;;;;;5.40;2.30;;;;;;;;;;6247688;23;20154;-91
2022/08/03 22:01:35;;;;;;;4.70;2.30;;;;;;;;;;6239175;22;20239;-91
2022/08/03 22:04:41;;;;;;;5.05;2.45;;;;;;;;;;6250075;23;20155;-91
2022/08/03 22:07:51;;;;;;;3.22;2.13;;;;;;;;;;6251031;22;20194;-91
2022/08/03 22:10:59;;;;;;;6.18;2.28;;;;;;;;;;6253094;23;20178;-90
2022/08/03 22:55:11;;;;;;;4.95;2.67;;;;;;;;;;6254128;22;20203;-91
2022/08/03 22:58:17;;;;;;;5.22;2.60;;;;;;;;;;6245075;23;20174;-92
2022/08/03 23:01:24;;;;;;;8.35;2.25;;;;;;;;;;6253403;23;20170;-91
2022/08/03 23:04:31;;;;;;;4.57;2.45;;;;;;;;;;6245862;23;20252;-90
2022/08/03 23:07:37;;;;;;;4.20;2.45;;;;;;;;;;6247105;23;20229;-91
2022/08/03 23:10:46;;;;;;;5.10;2.38;;;;;;;;;;6265532;22;20157;-92
2022/08/03 23:13:54;;;;;;;5.10;2.50;;;;;;;;;;6246901;23;20498;-89
2022/08/03 23:17:01;;;;;;;4.13;2.60;;;;;;;;;;6242687;23;20194;-91
2022/08/03 23:20:08;;;;;;;4.60;2.50;;;;;;;;;;6247288;23;20162;-91
2022/08/03 23:23:16;;;;;;;5.82;2.30;;;;;;;;;;6246648;23;20321;-91
2022/08/03 23:26:35;;;;;;;3.35;2.25;;;;;;;;;;6247120;23;20177;-90
2022/08/03 23:29:45;;;;;;;5.35;2.70;;;;;;;;;;6252376;22;20211;-89
